sensor_id;sensor_type;location;lat;lon;timestamp;noise_LAeq;noise_LA_min;noise_LA_max;noise_LA01;noise_LA95
50333;Laerm;36239;48.132;-1.210;2024-02-14T00:01:55;38.68;33.90;54.22;;
50333;Laerm;36239;48.132;-1.210;2024-02-14T00:04:21;38.62;34.31;53.46;;
50333;Laerm;36239;48.132;-1.210;2024-02-14T00:06:47;38.37;34.31;41.75;;
50333;Laerm;36239;48.132;-1.210;2024-02-14T00:09:13;38.25;33.90;43.19;;
50333;Laerm;36239;48.132;-1.210;2024-02-14T00:11:39;38.70;33.90;61.10;;
50333;Laerm;36239;48.132;-1.210;2024-02-14T00:14:05;40.91;35.04;64.88;;
50333;Laerm;36239;48.132;-1.210;2024-02-14T00:16:32;40.82;34.69;65.84;;
50333;Laerm;36239;48.132;-1.210;2024-02-14T00:18:59;45.05;33.44;73.15;;
50333;Laerm;36239;48.132;-1.210;2024-02-14T00:21:25;39.53;35.04;54.73;;
50333;Laerm;36239;48.132;-1.210;2024-02-14T00:23:51;39.15;34.69;55.03;;
50333;Laerm;36239;48.132;-1.210;2024-02-14T00:26:17;42.69;34.31;72.47;;
50333;Laerm;36239;48.132;-1.210;2024-02-14T00:28:43;49.17;34.69;75.89;;
50333;Laerm;36239;48.132;-1.210;2024-02-14T00:31:09;39.41;34.31;63.77;;
50333;Laerm;36239;48.132;-1.210;2024-02-14T00:33:34;38.73;34.31;53.16;;
50333;Laerm;36239;48.132;-1.210;2024-02-14T00:36:00;42.87;33.90;70.01;;
50333;Laerm;36239;48.132;-1.210;2024-02-14T00:38:26;43.95;34.31;71.07;;
50333;Laerm;36239;48.132;-1.210;2024-02-14T00:40:52;43.04;35.04;70.45;;
50333;Laerm;36239;48.132;-1.210;2024-02-14T00:43:18;45.11;35.04;76.48;;
50333;Laerm;36239;48.132;-1.210;2024-02-14T00:45:44;45.05;34.31;69.29;;
50333;Laerm;36239;48.132;-1.210;2024-02-14T00:48:11;47.99;33.09;77.81;;
50333;Laerm;36239;48.132;-1.210;2024-02-14T00:50:37;41.20;34.31;64.82;;
50333;Laerm;36239;48.132;-1.210;2024-02-14T00:53:03;45.02;34.69;73.37;;
50333;Laerm;36239;48.132;-1.210;2024-02-14T00:55:29;44.64;34.69;74.31;;
50333;Laerm;36239;48.132;-1.210;2024-02-14T00:57:55;43.89;35.04;71.24;;
50333;Laerm;36239;48.132;-1.210;2024-02-14T01:00:21;38.77;33.90;46.93;;
50333;Laerm;36239;48.132;-1.210;2024-02-14T01:02:48;38.41;33.90;43.44;;
50333;Laerm;36239;48.132;-1.210;2024-02-14T01:05:14;38.65;33.90;58.14;;
50333;Laerm;36239;48.132;-1.210;2024-02-14T01:07:40;38.87;33.90;54.36;;
50333;Laerm;36239;48.132;-1.210;2024-02-14T01:10:06;43.29;33.90;67.13;;
50333;Laerm;36239;48.132;-1.210;2024-02-14T01:12:32;39.24;33.44;60.72;;
50333;Laerm;36239;48.132;-1.210;2024-02-14T01:14:58;38.38;33.44;45.57;;
50333;Laerm;36239;48.132;-1.210;2024-02-14T01:17:24;38.85;34.31;56.88;;
50333;Laerm;36239;48.132;-1.210;2024-02-14T01:19:50;41.55;34.69;68.77;;
50333;Laerm;36239;48.132;-1.210;2024-02-14T01:22:16;40.34;32.93;69.23;;
50333;Laerm;36239;48.132;-1.210;2024-02-14T01:24:42;38.01;32.35;41.96;;
50333;Laerm;36239;48.132;-1.210;2024-02-14T01:27:09;38.14;32.35;49.56;;
50333;Laerm;36239;48.132;-1.210;2024-02-14T01:29:35;38.37;33.90;43.72;;
50333;Laerm;36239;48.132;-1.210;2024-02-14T01:32:01;38.04;33.90;47.83;;
50333;Laerm;36239;48.132;-1.210;2024-02-14T01:34:27;44.30;33.90;73.17;;
50333;Laerm;36239;48.132;-1.210;2024-02-14T01:36:54;44.39;33.90;71.00;;
50333;Laerm;36239;48.132;-1.210;2024-02-14T01:39:21;37.92;33.44;42.41;;
50333;Laerm;36239;48.132;-1.210;2024-02-14T01:41:48;40.81;33.97;68.15;;
50333;Laerm;36239;48.132;-1.210;2024-02-14T01:44:14;44.51;33.90;74.21;;
50333;Laerm;36239;48.132;-1.210;2024-02-14T01:46:41;38.40;33.44;53.83;;
50333;Laerm;36239;48.132;-1.210;2024-02-14T01:49:08;38.05;34.31;45.57;;
50333;Laerm;36239;48.132;-1.210;2024-02-14T01:51:35;37.99;32.93;53.99;;
50333;Laerm;36239;48.132;-1.210;2024-02-14T01:54:01;38.39;33.44;45.69;;
50333;Laerm;36239;48.132;-1.210;2024-02-14T01:56:29;39.23;32.93;61.73;;
50333;Laerm;36239;48.132;-1.210;2024-02-14T01:58:56;38.47;34.69;49.92;;
50333;Laerm;36239;48.132;-1.210;2024-02-14T02:01:23;41.65;33.44;64.66;;
50333;Laerm;36239;48.132;-1.210;2024-02-14T02:03:49;39.83;34.69;62.06;;
50333;Laerm;36239;48.132;-1.210;2024-02-14T02:06:15;43.13;33.90;72.59;;
50333;Laerm;36239;48.132;-1.210;2024-02-14T02:08:45;38.84;32.93;53.43;;
50333;Laerm;36239;48.132;-1.210;2024-02-14T02:11:11;38.29;33.90;51.37;;
50333;Laerm;36239;48.132;-1.210;2024-02-14T02:13:37;38.61;33.90;51.06;;
50333;Laerm;36239;48.132;-1.210;2024-02-14T02:16:05;39.37;33.44;64.16;;
50333;Laerm;36239;48.132;-1.210;2024-02-14T02:18:32;42.53;34.31;69.36;;
50333;Laerm;36239;48.132;-1.210;2024-02-14T02:20:58;38.43;33.90;47.04;;
50333;Laerm;36239;48.132;-1.210;2024-02-14T02:23:24;44.62;33.44;72.98;;
50333;Laerm;36239;48.132;-1.210;2024-02-14T02:25:50;42.86;33.90;68.51;;
50333;Laerm;36239;48.132;-1.210;2024-02-14T02:28:16;38.17;33.90;48.31;;
50333;Laerm;36239;48.132;-1.210;2024-02-14T02:30:42;38.27;33.44;43.54;;
50333;Laerm;36239;48.132;-1.210;2024-02-14T02:33:08;38.98;34.31;54.80;;
50333;Laerm;36239;48.132;-1.210;2024-02-14T02:35:34;38.52;33.44;47.06;;
50333;Laerm;36239;48.132;-1.210;2024-02-14T02:38:00;38.02;33.44;42.88;;
50333;Laerm;36239;48.132;-1.210;2024-02-14T02:40:26;42.28;33.90;70.92;;
50333;Laerm;36239;48.132;-1.210;2024-02-14T02:42:55;38.47;33.90;45.80;;
50333;Laerm;36239;48.132;-1.210;2024-02-14T02:45:21;41.11;34.31;66.84;;
50333;Laerm;36239;48.132;-1.210;2024-02-14T02:47:47;38.47;33.90;52.31;;
50333;Laerm;36239;48.132;-1.210;2024-02-14T02:50:13;38.38;33.90;42.88;;
50333;Laerm;36239;48.132;-1.210;2024-02-14T02:52:39;39.94;34.31;45.20;;
50333;Laerm;36239;48.132;-1.210;2024-02-14T02:55:07;38.30;34.31;43.54;;
50333;Laerm;36239;48.132;-1.210;2024-02-14T02:57:33;38.02;33.90;47.98;;
50333;Laerm;36239;48.132;-1.210;2024-02-14T03:00:03;38.11;32.93;43.04;;
50333;Laerm;36239;48.132;-1.210;2024-02-14T03:02:30;38.46;33.44;57.86;;
50333;Laerm;36239;48.132;-1.210;2024-02-14T03:04:56;38.42;34.31;57.06;;
50333;Laerm;36239;48.132;-1.210;2024-02-14T03:07:22;38.37;33.44;48.85;;
50333;Laerm;36239;48.132;-1.210;2024-02-14T03:09:49;44.96;35.36;70.71;;
50333;Laerm;36239;48.132;-1.210;2024-02-14T03:12:15;38.48;34.31;48.61;;
50333;Laerm;36239;48.132;-1.210;2024-02-14T03:14:44;38.98;34.31;45.27;;
50333;Laerm;36239;48.132;-1.210;2024-02-14T03:17:10;41.97;35.36;46.55;;
50333;Laerm;36239;48.132;-1.210;2024-02-14T03:19:37;38.75;34.69;50.81;;
50333;Laerm;36239;48.132;-1.210;2024-02-14T03:22:04;41.92;34.69;68.85;;
50333;Laerm;36239;48.132;-1.210;2024-02-14T03:24:34;39.25;34.69;48.40;;
50333;Laerm;36239;48.132;-1.210;2024-02-14T03:27:03;38.50;33.90;42.98;;
50333;Laerm;36239;48.132;-1.210;2024-02-14T03:29:30;43.14;35.04;67.70;;
50333;Laerm;36239;48.132;-1.210;2024-02-14T03:31:56;38.48;33.90;41.96;;
50333;Laerm;36239;48.132;-1.210;2024-02-14T03:34:24;38.82;35.36;50.46;;
50333;Laerm;36239;48.132;-1.210;2024-02-14T03:36:51;40.44;35.04;63.90;;
50333;Laerm;36239;48.132;-1.210;2024-02-14T03:39:17;39.16;35.66;52.57;;
50333;Laerm;36239;48.132;-1.210;2024-02-14T03:41:42;40.09;35.66;65.15;;
50333;Laerm;36239;48.132;-1.210;2024-02-14T03:44:08;39.45;35.94;49.49;;
50333;Laerm;36239;48.132;-1.210;2024-02-14T03:46:35;38.88;35.36;45.91;;
50333;Laerm;36239;48.132;-1.210;2024-02-14T03:49:01;39.33;35.31;56.50;;
50333;Laerm;36239;48.132;-1.210;2024-02-14T03:51:27;38.68;34.69;46.23;;
50333;Laerm;36239;48.132;-1.210;2024-02-14T03:53:53;38.52;34.69;41.61;;
50333;Laerm;36239;48.132;-1.210;2024-02-14T03:56:19;38.76;34.31;49.47;;
50333;Laerm;36239;48.132;-1.210;2024-02-14T03:58:45;39.00;35.04;50.65;;
50333;Laerm;36239;48.132;-1.210;2024-02-14T04:01:12;38.76;33.90;55.15;;
50333;Laerm;36239;48.132;-1.210;2024-02-14T04:03:39;50.06;34.31;76.55;;
50333;Laerm;36239;48.132;-1.210;2024-02-14T04:06:06;40.16;33.90;68.38;;
50333;Laerm;36239;48.132;-1.210;2024-02-14T04:08:32;38.83;34.69;44.54;;
50333;Laerm;36239;48.132;-1.210;2024-02-14T04:10:59;39.05;34.69;52.45;;
50333;Laerm;36239;48.132;-1.210;2024-02-14T04:13:25;39.01;35.94;44.62;;
50333;Laerm;36239;48.132;-1.210;2024-02-14T04:15:50;39.37;35.36;44.11;;
50333;Laerm;36239;48.132;-1.210;2024-02-14T04:18:16;39.87;35.36;44.76;;
50333;Laerm;36239;48.132;-1.210;2024-02-14T04:20:44;39.64;33.44;51.51;;
50333;Laerm;36239;48.132;-1.210;2024-02-14T04:23:10;43.19;34.69;70.07;;
50333;Laerm;36239;48.132;-1.210;2024-02-14T04:25:36;39.71;35.94;56.51;;
50333;Laerm;36239;48.132;-1.210;2024-02-14T04:28:02;49.48;36.45;68.42;;
50333;Laerm;36239;48.132;-1.210;2024-02-14T04:30:28;45.52;34.31;74.70;;
50333;Laerm;36239;48.132;-1.210;2024-02-14T04:32:55;39.12;35.36;56.89;;
50333;Laerm;36239;48.132;-1.210;2024-02-14T04:35:21;39.97;36.20;52.88;;
50333;Laerm;36239;48.132;-1.210;2024-02-14T04:37:47;39.78;35.94;54.03;;
50333;Laerm;36239;48.132;-1.210;2024-02-14T04:40:15;40.43;35.66;59.59;;
50333;Laerm;36239;48.132;-1.210;2024-02-14T04:42:41;39.50;35.94;51.01;;
50333;Laerm;36239;48.132;-1.210;2024-02-14T04:45:07;48.05;35.94;65.41;;
50333;Laerm;36239;48.132;-1.210;2024-02-14T04:47:34;39.73;35.66;58.11;;
50333;Laerm;36239;48.132;-1.210;2024-02-14T04:50:00;43.24;33.90;53.95;;
50333;Laerm;36239;48.132;-1.210;2024-02-14T04:52:26;39.19;35.04;43.72;;
50333;Laerm;36239;48.132;-1.210;2024-02-14T04:54:52;39.23;35.36;49.35;;
50333;Laerm;36239;48.132;-1.210;2024-02-14T04:57:18;39.40;35.04;47.44;;
50333;Laerm;36239;48.132;-1.210;2024-02-14T04:59:45;39.99;35.04;61.55;;
50333;Laerm;36239;48.132;-1.210;2024-02-14T05:02:11;39.29;34.31;44.43;;
50333;Laerm;36239;48.132;-1.210;2024-02-14T05:04:37;39.29;35.04;56.44;;
50333;Laerm;36239;48.132;-1.210;2024-02-14T05:07:05;39.74;35.94;54.53;;
50333;Laerm;36239;48.132;-1.210;2024-02-14T05:09:31;40.12;36.45;61.91;;
50333;Laerm;36239;48.132;-1.210;2024-02-14T05:11:57;40.99;35.94;64.23;;
50333;Laerm;36239;48.132;-1.210;2024-02-14T05:14:23;41.20;37.12;61.70;;
50333;Laerm;36239;48.132;-1.210;2024-02-14T05:16:49;40.30;35.66;57.23;;
50333;Laerm;36239;48.132;-1.210;2024-02-14T05:19:15;39.36;35.94;49.04;;
50333;Laerm;36239;48.132;-1.210;2024-02-14T05:21:41;39.78;35.66;48.46;;
50333;Laerm;36239;48.132;-1.210;2024-02-14T05:24:07;41.62;36.45;67.21;;
50333;Laerm;36239;48.132;-1.210;2024-02-14T05:26:34;40.09;35.94;52.63;;
50333;Laerm;36239;48.132;-1.210;2024-02-14T05:29:00;40.39;35.36;52.94;;
50333;Laerm;36239;48.132;-1.210;2024-02-14T05:31:29;40.51;35.66;55.54;;
50333;Laerm;36239;48.132;-1.210;2024-02-14T05:34:07;41.08;36.20;57.54;;
50333;Laerm;36239;48.132;-1.210;2024-02-14T05:36:33;40.52;35.94;51.75;;
50333;Laerm;36239;48.132;-1.210;2024-02-14T05:38:59;39.87;36.91;47.70;;
50333;Laerm;36239;48.132;-1.210;2024-02-14T05:41:26;43.24;37.32;60.16;;
50333;Laerm;36239;48.132;-1.210;2024-02-14T05:43:52;40.58;37.52;44.80;;
50333;Laerm;36239;48.132;-1.210;2024-02-14T05:46:18;40.90;37.32;58.81;;
50333;Laerm;36239;48.132;-1.210;2024-02-14T05:48:46;43.90;37.88;68.08;;
50333;Laerm;36239;48.132;-1.210;2024-02-14T05:51:14;40.82;37.70;49.87;;
50333;Laerm;36239;48.132;-1.210;2024-02-14T05:53:40;40.69;37.88;50.20;;
50333;Laerm;36239;48.132;-1.210;2024-02-14T05:56:06;41.05;37.88;54.85;;
50333;Laerm;36239;48.132;-1.210;2024-02-14T05:58:32;40.59;37.32;51.40;;
50333;Laerm;36239;48.132;-1.210;2024-02-14T06:00:58;41.81;37.32;65.71;;
50333;Laerm;36239;48.132;-1.210;2024-02-14T06:03:24;40.66;37.32;48.39;;
50333;Laerm;36239;48.132;-1.210;2024-02-14T06:05:50;40.97;38.18;46.28;;
50333;Laerm;36239;48.132;-1.210;2024-02-14T06:08:16;42.52;38.21;55.81;;
50333;Laerm;36239;48.132;-1.210;2024-02-14T06:10:42;41.08;38.21;51.16;;
50333;Laerm;36239;48.132;-1.210;2024-02-14T06:13:08;41.34;38.37;45.94;;
50333;Laerm;36239;48.132;-1.210;2024-02-14T06:15:35;41.54;38.18;62.92;;
50333;Laerm;36239;48.132;-1.210;2024-02-14T06:18:01;41.93;37.88;62.84;;
50333;Laerm;36239;48.132;-1.210;2024-02-14T06:20:27;41.32;37.88;54.56;;
50333;Laerm;36239;48.132;-1.210;2024-02-14T06:22:53;41.55;38.37;50.74;;
50333;Laerm;36239;48.132;-1.210;2024-02-14T06:25:20;43.01;38.81;54.86;;
50333;Laerm;36239;48.132;-1.210;2024-02-14T06:27:46;43.57;38.95;60.78;;
50333;Laerm;36239;48.132;-1.210;2024-02-14T06:30:12;44.22;38.67;61.29;;
50333;Laerm;36239;48.132;-1.210;2024-02-14T06:32:38;43.80;38.52;61.28;;
50333;Laerm;36239;48.132;-1.210;2024-02-14T06:35:04;43.44;39.08;59.67;;
50333;Laerm;36239;48.132;-1.210;2024-02-14T06:37:30;43.53;39.21;58.51;;
50333;Laerm;36239;48.132;-1.210;2024-02-14T06:39:56;43.12;39.34;51.52;;
50333;Laerm;36239;48.132;-1.210;2024-02-14T06:42:22;43.18;39.58;52.24;;
50333;Laerm;36239;48.132;-1.210;2024-02-14T06:44:48;42.41;39.58;54.15;;
50333;Laerm;36239;48.132;-1.210;2024-02-14T06:47:15;52.04;40.13;73.18;;
50333;Laerm;36239;48.132;-1.210;2024-02-14T06:49:41;44.21;39.81;56.80;;
50333;Laerm;36239;48.132;-1.210;2024-02-14T06:52:07;46.25;40.23;58.04;;
50333;Laerm;36239;48.132;-1.210;2024-02-14T06:54:33;46.27;40.13;68.38;;
50333;Laerm;36239;48.132;-1.210;2024-02-14T06:56:59;48.90;39.58;65.87;;
50333;Laerm;36239;48.132;-1.210;2024-02-14T06:59:26;42.66;38.95;55.41;;
50333;Laerm;36239;48.132;-1.210;2024-02-14T07:01:52;41.58;39.08;47.91;;
50333;Laerm;36239;48.132;-1.210;2024-02-14T07:04:21;42.06;39.08;53.54;;
50333;Laerm;36239;48.132;-1.210;2024-02-14T07:06:54;42.44;39.21;53.18;;
50333;Laerm;36239;48.132;-1.210;2024-02-14T07:09:20;42.45;39.81;50.24;;
50333;Laerm;36239;48.132;-1.210;2024-02-14T07:11:46;44.44;40.43;65.42;;
50333;Laerm;36239;48.132;-1.210;2024-02-14T07:14:12;44.84;39.81;71.38;;
50333;Laerm;36239;48.132;-1.210;2024-02-14T07:16:38;43.57;40.13;64.87;;
50333;Laerm;36239;48.132;-1.210;2024-02-14T07:19:04;42.16;39.70;47.24;;
50333;Laerm;36239;48.132;-1.210;2024-02-14T07:21:30;50.75;39.92;67.77;;
50333;Laerm;36239;48.132;-1.210;2024-02-14T07:23:58;42.79;40.53;55.26;;
50333;Laerm;36239;48.132;-1.210;2024-02-14T07:26:24;42.45;40.43;46.43;;
50333;Laerm;36239;48.132;-1.210;2024-02-14T07:28:51;42.69;40.23;65.08;;
50333;Laerm;36239;48.132;-1.210;2024-02-14T07:31:17;43.64;39.34;61.26;;
50333;Laerm;36239;48.132;-1.210;2024-02-14T07:33:43;42.58;39.34;55.67;;
50333;Laerm;36239;48.132;-1.210;2024-02-14T07:36:10;42.53;39.58;50.26;;
50333;Laerm;36239;48.132;-1.210;2024-02-14T07:38:36;43.19;40.71;55.98;;
50333;Laerm;36239;48.132;-1.210;2024-02-14T07:41:02;43.17;40.80;58.90;;
50333;Laerm;36239;48.132;-1.210;2024-02-14T07:43:28;47.84;40.03;77.29;;
50333;Laerm;36239;48.132;-1.210;2024-02-14T07:45:54;43.02;40.43;59.24;;
50333;Laerm;36239;48.132;-1.210;2024-02-14T07:48:20;53.50;40.53;75.62;;
50333;Laerm;36239;48.132;-1.210;2024-02-14T07:50:48;44.53;40.53;71.04;;
50333;Laerm;36239;48.132;-1.210;2024-02-14T07:53:14;49.57;39.58;76.31;;
50333;Laerm;36239;48.132;-1.210;2024-02-14T07:55:40;47.61;40.98;63.10;;
50333;Laerm;36239;48.132;-1.210;2024-02-14T07:58:06;49.68;40.89;60.59;;
50333;Laerm;36239;48.132;-1.210;2024-02-14T08:00:32;48.42;40.43;57.89;;
50333;Laerm;36239;48.132;-1.210;2024-02-14T08:02:58;46.08;39.92;58.02;;
50333;Laerm;36239;48.132;-1.210;2024-02-14T08:05:25;52.56;40.03;72.72;;
50333;Laerm;36239;48.132;-1.210;2024-02-14T08:07:51;45.31;38.47;59.96;;
50333;Laerm;36239;48.132;-1.210;2024-02-14T08:10:17;47.68;39.34;57.93;;
50333;Laerm;36239;48.132;-1.210;2024-02-14T08:12:43;45.22;39.78;57.79;;
50333;Laerm;36239;48.132;-1.210;2024-02-14T08:15:09;42.81;38.81;59.31;;
50333;Laerm;36239;48.132;-1.210;2024-02-14T08:17:35;46.02;39.70;54.47;;
50333;Laerm;36239;48.132;-1.210;2024-02-14T08:20:01;47.10;39.08;57.28;;
50333;Laerm;36239;48.132;-1.210;2024-02-14T08:22:29;42.36;40.03;47.70;;
50333;Laerm;36239;48.132;-1.210;2024-02-14T08:24:56;44.83;39.46;62.61;;
50333;Laerm;36239;48.132;-1.210;2024-02-14T08:27:22;43.68;39.23;68.46;;
50333;Laerm;36239;48.132;-1.210;2024-02-14T08:29:48;44.76;39.70;58.79;;
50333;Laerm;36239;48.132;-1.210;2024-02-14T08:32:14;45.81;39.08;55.18;;
50333;Laerm;36239;48.132;-1.210;2024-02-14T08:34:40;43.10;39.34;60.20;;
50333;Laerm;36239;48.132;-1.210;2024-02-14T08:37:06;44.13;38.95;53.74;;
50333;Laerm;36239;48.132;-1.210;2024-02-14T08:39:34;44.31;39.58;53.48;;
50333;Laerm;36239;48.132;-1.210;2024-02-14T08:42:00;42.88;39.70;58.82;;
50333;Laerm;36239;48.132;-1.210;2024-02-14T08:44:33;45.39;39.21;61.98;;
50333;Laerm;36239;48.132;-1.210;2024-02-14T08:47:00;44.78;38.95;63.30;;
50333;Laerm;36239;48.132;-1.210;2024-02-14T08:49:26;42.28;39.21;54.25;;
50333;Laerm;36239;48.132;-1.210;2024-02-14T08:51:52;45.37;39.58;65.72;;
50333;Laerm;36239;48.132;-1.210;2024-02-14T08:54:18;43.83;39.21;52.79;;
50333;Laerm;36239;48.132;-1.210;2024-02-14T08:56:44;43.92;39.70;52.21;;
50333;Laerm;36239;48.132;-1.210;2024-02-14T08:59:10;42.45;38.81;57.43;;
50333;Laerm;36239;48.132;-1.210;2024-02-14T09:01:37;44.10;39.21;53.08;;
50333;Laerm;36239;48.132;-1.210;2024-02-14T09:04:03;45.65;38.81;65.08;;
50333;Laerm;36239;48.132;-1.210;2024-02-14T09:06:29;42.83;38.52;52.88;;
50333;Laerm;36239;48.132;-1.210;2024-02-14T09:08:55;43.96;38.67;61.70;;
50333;Laerm;36239;48.132;-1.210;2024-02-14T09:11:21;43.91;38.81;55.18;;
50333;Laerm;36239;48.132;-1.210;2024-02-14T09:13:48;50.33;39.21;71.26;;
50333;Laerm;36239;48.132;-1.210;2024-02-14T09:16:16;43.78;39.21;52.97;;
50333;Laerm;36239;48.132;-1.210;2024-02-14T09:18:44;46.25;39.58;69.47;;
50333;Laerm;36239;48.132;-1.210;2024-02-14T09:21:10;47.90;41.46;59.20;;
50333;Laerm;36239;48.132;-1.210;2024-02-14T09:23:36;49.57;42.03;59.00;;
50333;Laerm;36239;48.132;-1.210;2024-02-14T09:26:06;48.18;40.80;59.81;;
50333;Laerm;36239;48.132;-1.210;2024-02-14T09:28:32;45.36;40.13;64.34;;
50333;Laerm;36239;48.132;-1.210;2024-02-14T09:30:59;52.35;40.13;67.55;;
50333;Laerm;36239;48.132;-1.210;2024-02-14T09:33:25;47.40;38.95;60.74;;
50333;Laerm;36239;48.132;-1.210;2024-02-14T09:35:51;60.40;39.34;74.68;;
50333;Laerm;36239;48.132;-1.210;2024-02-14T09:38:17;61.05;39.70;76.45;;
50333;Laerm;36239;48.132;-1.210;2024-02-14T09:40:43;61.18;40.89;75.99;;
50333;Laerm;36239;48.132;-1.210;2024-02-14T09:43:12;56.49;41.06;73.58;;
50333;Laerm;36239;48.132;-1.210;2024-02-14T09:45:43;59.34;40.03;72.27;;
50333;Laerm;36239;48.132;-1.210;2024-02-14T09:48:10;44.08;39.08;66.08;;
50333;Laerm;36239;48.132;-1.210;2024-02-14T09:50:38;46.87;40.23;64.32;;
50333;Laerm;36239;48.132;-1.210;2024-02-14T09:53:04;61.00;40.53;74.06;;
50333;Laerm;36239;48.132;-1.210;2024-02-14T09:55:30;55.09;40.33;71.90;;
50333;Laerm;36239;48.132;-1.210;2024-02-14T09:57:59;53.85;40.33;69.19;;
50333;Laerm;36239;48.132;-1.210;2024-02-14T10:00:30;54.40;38.95;77.27;;
50333;Laerm;36239;48.132;-1.210;2024-02-14T10:02:57;44.72;38.21;55.15;;
50333;Laerm;36239;48.132;-1.210;2024-02-14T10:05:23;49.09;39.21;59.43;;
50333;Laerm;36239;48.132;-1.210;2024-02-14T10:07:49;42.10;38.95;56.00;;
50333;Laerm;36239;48.132;-1.210;2024-02-14T10:10:15;42.07;38.21;58.96;;
50333;Laerm;36239;48.132;-1.210;2024-02-14T10:12:42;46.48;38.37;62.40;;
50333;Laerm;36239;48.132;-1.210;2024-02-14T10:15:08;48.93;38.52;74.79;;
50333;Laerm;36239;48.132;-1.210;2024-02-14T10:17:34;47.60;38.95;70.95;;
50333;Laerm;36239;48.132;-1.210;2024-02-14T10:20:01;46.08;38.81;60.01;;
50333;Laerm;36239;48.132;-1.210;2024-02-14T10:22:34;42.36;38.67;60.39;;
50333;Laerm;36239;48.132;-1.210;2024-02-14T10:25:01;44.95;39.21;58.12;;
50333;Laerm;36239;48.132;-1.210;2024-02-14T10:27:28;45.66;39.81;56.28;;
50333;Laerm;36239;48.132;-1.210;2024-02-14T10:29:59;47.13;39.58;66.19;;
50333;Laerm;36239;48.132;-1.210;2024-02-14T10:32:25;44.11;38.67;61.97;;
50333;Laerm;36239;48.132;-1.210;2024-02-14T10:34:51;41.76;38.21;54.04;;
50333;Laerm;36239;48.132;-1.210;2024-02-14T10:37:17;58.49;39.58;74.37;;
50333;Laerm;36239;48.132;-1.210;2024-02-14T10:39:44;54.75;38.81;68.68;;
50333;Laerm;36239;48.132;-1.210;2024-02-14T10:42:12;49.74;38.95;74.24;;
50333;Laerm;36239;48.132;-1.210;2024-02-14T10:44:39;46.23;39.34;68.97;;
50333;Laerm;36239;48.132;-1.210;2024-02-14T10:47:05;56.90;38.95;75.07;;
50333;Laerm;36239;48.132;-1.210;2024-02-14T10:49:33;42.22;38.37;58.88;;
50333;Laerm;36239;48.132;-1.210;2024-02-14T10:52:01;45.32;38.21;74.32;;
50333;Laerm;36239;48.132;-1.210;2024-02-14T10:54:33;42.41;37.88;54.69;;
50333;Laerm;36239;48.132;-1.210;2024-02-14T10:57:03;52.81;39.81;79.22;;
50333;Laerm;36239;48.132;-1.210;2024-02-14T10:59:30;52.40;38.21;77.06;;
50333;Laerm;36239;48.132;-1.210;2024-02-14T11:01:57;46.34;39.23;68.64;;
50333;Laerm;36239;48.132;-1.210;2024-02-14T11:04:23;42.31;38.81;54.75;;
50333;Laerm;36239;48.132;-1.210;2024-02-14T11:06:52;42.83;38.21;56.64;;
50333;Laerm;36239;48.132;-1.210;2024-02-14T11:09:20;47.76;39.46;78.57;;
50333;Laerm;36239;48.132;-1.210;2024-02-14T11:11:46;49.09;39.08;76.88;;
50333;Laerm;36239;48.132;-1.210;2024-02-14T11:14:20;43.01;39.08;65.17;;
50333;Laerm;36239;48.132;-1.210;2024-02-14T11:16:48;44.95;38.95;74.38;;
50333;Laerm;36239;48.132;-1.210;2024-02-14T11:19:14;48.14;39.08;69.11;;
50333;Laerm;36239;48.132;-1.210;2024-02-14T11:21:45;48.41;38.81;73.91;;
50333;Laerm;36239;48.132;-1.210;2024-02-14T11:24:12;46.57;39.08;66.65;;
50333;Laerm;36239;48.132;-1.210;2024-02-14T11:26:47;55.20;40.23;78.83;;
50333;Laerm;36239;48.132;-1.210;2024-02-14T11:29:14;55.49;38.95;78.28;;
50333;Laerm;36239;48.132;-1.210;2024-02-14T11:31:40;54.15;39.81;81.36;;
50333;Laerm;36239;48.132;-1.210;2024-02-14T11:34:07;43.86;38.81;66.15;;
50333;Laerm;36239;48.132;-1.210;2024-02-14T11:36:34;50.50;38.95;79.17;;
50333;Laerm;36239;48.132;-1.210;2024-02-14T11:39:04;53.07;40.13;86.94;;
50333;Laerm;36239;48.132;-1.210;2024-02-14T11:41:34;61.13;39.08;91.31;;
50333;Laerm;36239;48.132;-1.210;2024-02-14T11:44:01;41.79;38.67;54.18;;
50333;Laerm;36239;48.132;-1.210;2024-02-14T11:46:35;45.29;38.95;66.78;;
50333;Laerm;36239;48.132;-1.210;2024-02-14T11:49:02;53.32;39.08;81.47;;
50333;Laerm;36239;48.132;-1.210;2024-02-14T11:51:34;59.76;37.70;86.24;;
50333;Laerm;36239;48.132;-1.210;2024-02-14T11:54:04;43.75;37.70;68.60;;
50333;Laerm;36239;48.132;-1.210;2024-02-14T11:56:31;50.87;38.52;78.47;;
50333;Laerm;36239;48.132;-1.210;2024-02-14T11:59:00;51.04;38.37;79.52;;
50333;Laerm;36239;48.132;-1.210;2024-02-14T12:01:33;47.06;37.88;75.91;;
50333;Laerm;36239;48.132;-1.210;2024-02-14T12:03:59;51.58;38.05;69.10;;
50333;Laerm;36239;48.132;-1.210;2024-02-14T12:06:27;46.15;38.37;76.21;;
50333;Laerm;36239;48.132;-1.210;2024-02-14T12:08:54;53.32;38.32;76.84;;
50333;Laerm;36239;48.132;-1.210;2024-02-14T12:11:20;52.25;38.95;81.06;;
50333;Laerm;36239;48.132;-1.210;2024-02-14T12:13:49;45.04;38.67;63.05;;
50333;Laerm;36239;48.132;-1.210;2024-02-14T12:16:15;41.65;37.70;53.30;;
50333;Laerm;36239;48.132;-1.210;2024-02-14T12:18:41;41.01;37.52;44.94;;
50333;Laerm;36239;48.132;-1.210;2024-02-14T12:21:07;42.01;38.67;59.85;;
50333;Laerm;36239;48.132;-1.210;2024-02-14T12:23:33;53.18;39.21;79.57;;
50333;Laerm;36239;48.132;-1.210;2024-02-14T12:26:03;45.12;38.21;60.04;;
50333;Laerm;36239;48.132;-1.210;2024-02-14T12:28:29;42.51;38.81;55.72;;
50333;Laerm;36239;48.132;-1.210;2024-02-14T12:31:00;46.14;38.95;71.10;;
50333;Laerm;36239;48.132;-1.210;2024-02-14T12:33:26;43.98;39.21;70.12;;
50333;Laerm;36239;48.132;-1.210;2024-02-14T12:35:53;60.38;38.05;90.14;;
50333;Laerm;36239;48.132;-1.210;2024-02-14T12:38:20;48.03;38.05;74.28;;
50333;Laerm;36239;48.132;-1.210;2024-02-14T12:40:46;45.77;38.37;68.35;;
50333;Laerm;36239;48.132;-1.210;2024-02-14T12:43:13;56.82;38.52;88.24;;
50333;Laerm;36239;48.132;-1.210;2024-02-14T12:45:40;42.15;38.05;63.95;;
50333;Laerm;36239;48.132;-1.210;2024-02-14T12:48:06;49.39;38.52;75.49;;
50333;Laerm;36239;48.132;-1.210;2024-02-14T12:50:34;42.61;38.21;59.88;;
50333;Laerm;36239;48.132;-1.210;2024-02-14T12:53:01;42.16;38.52;62.14;;
50333;Laerm;36239;48.132;-1.210;2024-02-14T12:55:28;41.58;37.52;67.20;;
50333;Laerm;36239;48.132;-1.210;2024-02-14T12:57:54;44.86;37.12;73.87;;
50333;Laerm;36239;48.132;-1.210;2024-02-14T13:00:21;41.11;36.69;63.80;;
50333;Laerm;36239;48.132;-1.210;2024-02-14T13:02:48;40.72;36.69;52.49;;
50333;Laerm;36239;48.132;-1.210;2024-02-14T13:05:14;54.63;37.88;70.90;;
50333;Laerm;36239;48.132;-1.210;2024-02-14T13:07:40;41.15;37.32;55.82;;
50333;Laerm;36239;48.132;-1.210;2024-02-14T13:10:06;45.17;37.88;67.30;;
50333;Laerm;36239;48.132;-1.210;2024-02-14T13:12:35;45.64;38.21;72.20;;
50333;Laerm;36239;48.132;-1.210;2024-02-14T13:15:01;54.98;37.32;82.37;;
50333;Laerm;36239;48.132;-1.210;2024-02-14T13:17:27;50.99;37.52;82.52;;
50333;Laerm;36239;48.132;-1.210;2024-02-14T13:19:53;46.85;37.12;70.67;;
50333;Laerm;36239;48.132;-1.210;2024-02-14T13:22:19;51.19;38.21;70.96;;
50333;Laerm;36239;48.132;-1.210;2024-02-14T13:24:45;44.40;39.34;59.23;;
50333;Laerm;36239;48.132;-1.210;2024-02-14T13:27:11;44.10;39.21;60.13;;
50333;Laerm;36239;48.132;-1.210;2024-02-14T13:29:37;46.12;38.52;68.24;;